createdAt,value
2018-08-21T14:15:02.218Z,23.31
2018-08-21T14:16:04.755Z,23.19
2018-08-21T14:17:01.950Z,23.23
2018-08-21T14:18:02.194Z,23.27
2018-08-21T14:19:02.191Z,23.33
2018-08-21T14:20:01.936Z,23.38
2018-08-21T14:21:02.181Z,23.38
2018-08-21T14:22:01.936Z,23.4
2018-08-21T14:23:02.174Z,23.38
2018-08-21T14:24:01.919Z,23.39
2018-08-21T14:25:02.171Z,23.43
2018-08-21T14:26:01.916Z,23.5
2018-08-21T14:27:01.660Z,23.53
2018-08-21T14:28:01.972Z,23.58
2018-08-21T14:29:02.164Z,23.51
2018-08-21T14:30:02.162Z,23.51
2018-08-21T14:31:02.155Z,23.63
2018-08-21T14:32:02.157Z,23.63
2018-08-21T14:33:02.153Z,23.6
2018-08-21T14:34:02.191Z,23.63
2018-08-21T14:35:02.153Z,23.68
2018-08-21T14:36:02.153Z,23.73
2018-08-21T14:37:02.170Z,23.79
2018-08-21T14:38:01.645Z,23.83
2018-08-21T14:39:02.353Z,23.79
2018-08-21T14:40:02.153Z,23.83
2018-08-21T14:41:02.145Z,23.88
2018-08-21T14:42:02.152Z,23.98
2018-08-21T14:43:01.912Z,23.97
2018-08-21T14:44:01.897Z,24.06
2018-08-21T14:45:02.188Z,24.08
2018-08-21T14:46:02.417Z,24.08
2018-08-21T14:47:01.897Z,24.09
2018-08-21T14:48:01.902Z,24.12
2018-08-21T14:49:01.894Z,24.18
2018-08-21T14:50:02.271Z,24.18
2018-08-21T14:51:01.915Z,24.15
2018-08-21T14:52:01.892Z,24.18
2018-08-21T14:53:01.896Z,24.15
2018-08-21T14:54:02.154Z,24.28
2018-08-21T14:55:02.147Z,24.21
2018-08-21T14:56:02.146Z,24.21
2018-08-21T14:57:02.156Z,24.18
2018-08-21T14:58:02.226Z,24.2
2018-08-21T14:59:02.150Z,24.2
2018-08-21T15:00:02.145Z,24.2
2018-08-21T15:01:02.148Z,24.18
2018-08-21T15:02:01.904Z,24.2
2018-08-21T15:03:02.151Z,24.18
2018-08-21T15:04:02.147Z,24.3
2018-08-21T15:05:02.150Z,24.31
2018-08-21T15:06:02.151Z,24.28
2018-08-21T15:07:02.150Z,24.2
2018-08-21T15:08:02.153Z,24.18
2018-08-21T15:09:02.151Z,24.24
2018-08-21T15:10:02.226Z,24.16
2018-08-21T15:11:02.165Z,24.08
2018-08-21T15:12:02.152Z,24.03
2018-08-21T15:13:02.153Z,24.06
2018-08-21T15:14:02.153Z,24.12
2018-08-21T15:15:01.904Z,24.15
2018-08-21T15:16:02.154Z,24.09
2018-08-21T15:17:02.156Z,24.09
2018-08-21T15:18:02.156Z,24.08
2018-08-21T15:19:01.903Z,24.13
2018-08-21T15:20:02.161Z,24.03
2018-08-21T15:21:01.915Z,24.1
2018-08-21T15:22:02.181Z,24.12
2018-08-21T15:23:01.906Z,24.05
2018-08-21T15:24:02.159Z,24.16
2018-08-21T15:25:02.158Z,24.18
2018-08-21T15:26:02.156Z,24.09
2018-08-21T15:27:02.157Z,24.13
2018-08-21T15:28:02.160Z,24.1
2018-08-21T15:29:02.170Z,24.12
2018-08-21T15:30:02.161Z,24.21
2018-08-21T15:31:02.163Z,24.1
2018-08-21T15:32:01.918Z,24.09
2018-08-21T15:33:02.229Z,24.18
2018-08-21T15:34:01.927Z,24.18
2018-08-21T15:35:02.170Z,24.15
2018-08-21T15:36:02.192Z,24.09
2018-08-21T15:37:02.190Z,24.1
2018-08-21T15:38:01.945Z,24.08
2018-08-21T15:39:02.042Z,24.13
2018-08-21T15:40:02.835Z,24.13
2018-08-21T15:42:27.925Z,24.08
2018-08-21T15:43:26.628Z,24.12
2018-08-21T15:44:25.471Z,24.09
2018-08-21T15:45:25.345Z,24.06
2018-08-21T15:46:25.449Z,24.05
2018-08-21T15:47:24.832Z,23.97
2018-08-21T15:48:25.115Z,23.93
2018-08-21T15:49:25.376Z,23.95
2018-08-21T15:50:25.342Z,23.87
2018-08-21T15:51:25.085Z,23.85
2018-08-21T15:52:25.364Z,23.83
2018-08-21T15:53:25.336Z,23.87
2018-08-21T15:54:25.350Z,23.8
2018-08-21T15:55:25.336Z,23.78
2018-08-21T15:56:25.341Z,23.79
2018-08-21T15:57:25.338Z,23.8
2018-08-21T15:58:25.275Z,23.79
2018-08-21T15:59:25.339Z,23.78
2018-08-21T16:00:25.085Z,23.83
2018-08-21T16:01:25.416Z,23.7
2018-08-21T16:02:25.370Z,23.83
2018-08-21T16:03:25.336Z,23.78
2018-08-21T16:04:25.085Z,23.73
2018-08-21T16:05:25.347Z,23.65
2018-08-21T16:06:25.083Z,23.66
2018-08-21T16:07:25.409Z,23.72
2018-08-21T16:08:24.835Z,23.66
2018-08-21T16:09:25.166Z,23.68
2018-08-21T16:10:25.337Z,23.65
2018-08-21T16:11:25.876Z,23.65
2018-08-21T16:12:25.581Z,23.61
2018-08-21T16:13:25.340Z,23.54
2018-08-21T16:14:25.337Z,23.54
2018-08-21T16:15:25.350Z,23.51
2018-08-21T16:16:24.834Z,23.5
2018-08-21T16:17:25.482Z,23.5
2018-08-21T16:18:25.344Z,23.5
2018-08-21T16:19:25.350Z,23.47
2018-08-21T16:20:25.084Z,23.47
2018-08-21T16:21:25.086Z,23.38
2018-08-21T16:22:25.333Z,23.38
2018-08-21T16:23:25.345Z,23.43
2018-08-21T16:24:25.334Z,23.43
2018-08-21T16:25:25.143Z,23.4
2018-08-21T16:26:25.333Z,23.36
2018-08-21T16:27:25.504Z,23.33
2018-08-21T16:28:25.344Z,23.28
2018-08-21T16:29:25.082Z,23.23
2018-08-21T16:30:25.085Z,23.17
2018-08-21T16:31:25.346Z,23.19
2018-08-21T16:32:25.578Z,23.25
2018-08-21T16:33:25.779Z,23.22
2018-08-21T16:34:25.328Z,23.16
2018-08-21T16:35:25.356Z,23.15
2018-08-21T16:36:25.333Z,23.17
2018-08-21T16:37:25.079Z,23.2
2018-08-21T16:38:25.427Z,23.2
2018-08-21T16:39:25.880Z,23.19
2018-08-21T16:40:26.331Z,23.07
2018-08-21T16:41:25.134Z,23.05
2018-08-21T16:42:25.337Z,23.12
2018-08-21T16:43:25.373Z,23.07
2018-08-21T16:44:25.326Z,23
2018-08-21T16:45:25.072Z,23.02
2018-08-21T16:46:25.774Z,22.91
2018-08-21T16:47:25.074Z,22.95
2018-08-21T16:48:25.327Z,22.95
2018-08-21T16:49:25.328Z,22.95
2018-08-21T16:50:25.436Z,22.92
2018-08-21T16:51:24.817Z,22.88
2018-08-21T16:52:25.069Z,22.85
2018-08-21T16:53:25.329Z,22.85
2018-08-21T16:54:25.323Z,22.85
2018-08-21T16:55:25.068Z,22.86
2018-08-21T16:56:25.319Z,22.91
2018-08-21T16:57:24.813Z,22.95
2018-08-21T16:58:25.317Z,22.9
2018-08-21T16:59:25.314Z,22.92
2018-08-21T17:00:25.383Z,22.85
2018-08-21T17:01:25.609Z,22.85
2018-08-21T17:02:25.061Z,22.91
2018-08-21T17:03:25.312Z,22.85
2018-08-21T17:04:25.310Z,22.9
2018-08-21T17:05:25.310Z,22.86
2018-08-21T17:06:25.059Z,22.82
2018-08-21T17:07:25.058Z,22.79
2018-08-21T17:08:25.057Z,22.76
2018-08-21T17:09:25.313Z,22.79
2018-08-21T17:10:25.198Z,22.62
2018-08-21T17:11:25.308Z,22.64
2018-08-21T17:12:24.804Z,22.57
2018-08-21T17:13:25.338Z,22.62
2018-08-21T17:14:25.300Z,22.61
2018-08-21T17:15:25.300Z,22.58
2018-08-21T17:16:25.301Z,22.55
2018-08-21T17:17:25.047Z,22.47
2018-08-21T17:18:25.300Z,22.49
2018-08-21T17:19:25.298Z,22.51
2018-08-21T17:20:25.577Z,22.45
2018-08-21T17:21:25.300Z,22.42
2018-08-21T17:22:24.793Z,22.37
2018-08-21T17:23:25.292Z,22.43
2018-08-21T17:24:25.301Z,22.31
2018-08-21T17:25:25.293Z,22.35
2018-08-21T17:26:25.039Z,22.3
2018-08-21T17:27:25.286Z,22.21
2018-08-21T17:28:25.285Z,22.18
2018-08-21T17:29:25.283Z,22.21
2018-08-21T17:30:25.287Z,22.3
2018-08-21T17:31:25.029Z,22.25
2018-08-21T17:32:25.285Z,22.22
2018-08-21T17:33:25.029Z,22.28
2018-08-21T17:34:25.276Z,22.2
2018-08-21T17:35:25.277Z,22.24
2018-08-21T17:36:25.280Z,22.2
2018-08-21T17:37:25.023Z,22.14
2018-08-21T17:38:25.019Z,22.05
2018-08-21T17:39:25.270Z,22.07
2018-08-21T17:40:25.326Z,22.14
2018-08-21T17:41:25.266Z,22.06
2018-08-21T17:42:25.013Z,21.99
2018-08-21T17:43:25.264Z,21.94
2018-08-21T17:44:25.016Z,21.99
2018-08-21T17:45:25.261Z,21.94
2018-08-21T17:46:25.259Z,21.92
2018-08-21T17:47:25.269Z,21.79
2018-08-21T17:48:25.258Z,21.83
2018-08-21T17:49:25.259Z,21.8
2018-08-21T17:50:25.259Z,21.8
2018-08-21T17:51:25.255Z,21.69
2018-08-21T17:52:24.998Z,21.72
2018-08-21T17:53:25.247Z,21.65
2018-08-21T17:54:25.247Z,21.64
2018-08-21T17:55:25.244Z,21.53
2018-08-21T17:56:25.246Z,21.53
2018-08-21T17:57:25.241Z,21.47
2018-08-21T17:58:25.244Z,21.49
2018-08-21T17:59:25.262Z,21.47
2018-08-21T18:00:24.983Z,21.37
2018-08-21T18:01:24.985Z,21.35
2018-08-21T18:02:24.729Z,21.32
2018-08-21T18:03:25.231Z,21.29
2018-08-21T18:04:25.232Z,21.19
2018-08-21T18:05:25.338Z,21.29
2018-08-21T18:06:24.974Z,21.17
2018-08-21T18:07:24.970Z,21.16
2018-08-21T18:08:25.224Z,21.06
2018-08-21T18:09:25.270Z,21.01
2018-08-21T18:10:25.215Z,20.92
2018-08-21T18:11:25.215Z,20.79
2018-08-21T18:12:25.211Z,20.77
2018-08-21T18:13:25.209Z,20.64
2018-08-21T18:14:24.954Z,20.64
2018-08-21T18:15:25.208Z,20.48
2018-08-21T18:16:25.202Z,20.36
2018-08-21T18:17:25.199Z,20.36
2018-08-21T18:18:25.197Z,20.29
2018-08-21T18:19:25.201Z,20.26
2018-08-21T18:20:24.942Z,20.2
2018-08-21T18:21:24.686Z,20.2
2018-08-21T18:22:24.949Z,20.1
2018-08-21T18:23:25.187Z,19.96
2018-08-21T18:24:25.181Z,19.91
2018-08-21T18:25:25.188Z,19.94
2018-08-21T18:26:25.176Z,19.87
2018-08-21T18:27:25.183Z,19.83
2018-08-21T18:28:25.179Z,19.76
2018-08-21T18:29:25.168Z,19.68
2018-08-21T18:30:25.172Z,19.69
2018-08-21T18:31:24.916Z,19.63
2018-08-21T18:32:24.911Z,19.58
2018-08-21T18:33:25.167Z,19.56
2018-08-21T18:34:24.904Z,19.44
2018-08-21T18:35:25.308Z,19.39
2018-08-21T18:36:25.302Z,19.33
2018-08-21T18:37:25.255Z,19.32
2018-08-21T18:38:25.145Z,19.26
2018-08-21T18:39:24.889Z,19.21
2018-08-21T18:40:25.139Z,19.23
2018-08-21T18:41:24.890Z,19.14
2018-08-21T18:42:25.136Z,19.16
2018-08-21T18:43:25.159Z,19.04
2018-08-21T18:44:25.147Z,19.08
2018-08-21T18:45:25.133Z,18.94
2018-08-21T18:46:25.134Z,18.94
2018-08-21T18:47:25.124Z,18.82
2018-08-21T18:48:25.115Z,18.82
2018-08-21T18:49:25.130Z,18.85
2018-08-21T18:50:25.361Z,18.69
2018-08-21T18:51:25.107Z,18.67
2018-08-21T18:52:24.850Z,18.7
2018-08-21T18:53:24.848Z,18.63
2018-08-21T18:54:25.093Z,18.48
2018-08-21T18:55:25.093Z,18.58
2018-08-21T18:56:25.094Z,18.52
2018-08-21T18:57:24.882Z,18.42
2018-08-21T18:58:25.084Z,18.44
2018-08-21T18:59:25.082Z,18.42
2018-08-21T19:00:25.077Z,18.3
2018-08-21T19:01:25.120Z,18.29
2018-08-21T19:02:25.068Z,18.3
2018-08-21T19:03:25.062Z,18.27
2018-08-21T19:04:25.447Z,18.27
2018-08-21T19:05:25.063Z,18.26
2018-08-21T19:06:25.052Z,18.14
2018-08-21T19:07:24.803Z,18.14
2018-08-21T19:08:24.793Z,18.11
2018-08-21T19:09:24.789Z,18.11
2018-08-21T19:10:25.041Z,18.02
2018-08-21T19:11:24.782Z,18.03
2018-08-21T19:12:25.031Z,17.87
2018-08-21T19:13:24.781Z,17.89
2018-08-21T19:14:25.043Z,17.9
2018-08-21T19:15:25.020Z,17.86
2018-08-21T19:16:24.769Z,17.93
2018-08-21T19:17:25.011Z,17.9
2018-08-21T19:18:25.008Z,17.82
2018-08-21T19:19:24.756Z,17.82
2018-08-21T19:20:24.773Z,17.89
2018-08-21T19:21:25.001Z,17.87
2018-08-21T19:22:24.993Z,17.71
2018-08-21T19:23:24.741Z,17.63
2018-08-21T19:24:24.989Z,17.66
2018-08-21T19:25:24.981Z,17.71
2018-08-21T19:26:24.475Z,17.59
2018-08-21T19:27:24.983Z,17.62
2018-08-21T19:28:24.972Z,17.58
2018-08-21T19:29:24.966Z,17.58
2018-08-21T19:30:24.969Z,17.52
2018-08-21T19:31:24.711Z,17.62
2018-08-21T19:32:24.955Z,17.52
2018-08-21T19:33:24.949Z,17.49
2018-08-21T19:34:24.946Z,17.52
2018-08-21T19:35:24.941Z,17.52
2018-08-21T19:36:24.686Z,17.43
2018-08-21T19:37:24.932Z,17.43
2018-08-21T19:38:24.678Z,17.4
2018-08-21T19:39:24.675Z,17.4
2018-08-21T19:40:24.925Z,17.37
2018-08-21T19:41:25.018Z,17.28
2018-08-21T19:42:24.662Z,17.3
2018-08-21T19:43:24.909Z,17.33
2018-08-21T19:44:24.651Z,17.25
2018-08-21T19:45:24.650Z,17.28
2018-08-21T19:46:24.896Z,17.14
2018-08-21T19:47:25.047Z,17.19
2018-08-21T19:48:24.889Z,17.12
2018-08-21T19:49:24.888Z,17.18
2018-08-21T19:50:24.891Z,17.15
2018-08-21T19:51:24.879Z,17.04
2018-08-21T19:52:24.879Z,17.08
2018-08-21T19:53:24.865Z,17.06
2018-08-21T19:54:24.864Z,17
2018-08-21T19:55:24.605Z,16.97
2018-08-21T19:56:24.602Z,17
2018-08-21T19:57:24.597Z,16.96
2018-08-21T19:58:25.023Z,16.94
2018-08-21T19:59:24.591Z,16.94
2018-08-21T20:00:24.884Z,16.86
2018-08-21T20:01:24.579Z,16.88
2018-08-21T20:02:24.829Z,16.78
2018-08-21T20:03:24.828Z,16.81
2018-08-21T20:04:24.568Z,16.85
2018-08-21T20:05:24.814Z,16.76
2018-08-21T20:06:24.556Z,16.78
2018-08-21T20:07:24.553Z,16.83
2018-08-21T20:08:24.800Z,16.7
2018-08-21T20:09:24.797Z,16.68
2018-08-21T20:10:24.832Z,16.7
2018-08-21T20:11:24.785Z,16.67
2018-08-21T20:12:24.792Z,16.5
2018-08-21T20:13:24.776Z,16.6
2018-08-21T20:14:24.527Z,16.57
2018-08-21T20:15:24.778Z,16.6
2018-08-21T20:16:24.765Z,16.6
2018-08-21T20:17:24.757Z,16.52
2018-08-21T20:18:24.504Z,16.5
2018-08-21T20:19:25.045Z,16.48
2018-08-21T20:20:24.749Z,16.5
2018-08-21T20:21:24.743Z,16.48
2018-08-21T20:22:24.736Z,16.46
2018-08-21T20:23:24.729Z,16.48
2018-08-21T20:24:24.724Z,16.43
2018-08-21T20:25:24.724Z,16.45
2018-08-21T20:26:24.720Z,16.39
2018-08-21T20:27:24.710Z,16.42
2018-08-21T20:28:24.707Z,16.39
2018-08-21T20:29:24.699Z,16.5
2018-08-21T20:30:24.697Z,16.46
2018-08-21T20:31:24.696Z,16.52
2018-08-21T20:32:24.439Z,16.52
2018-08-21T20:33:24.680Z,16.56
2018-08-21T20:34:24.431Z,16.52
2018-08-21T20:35:24.675Z,16.48
2018-08-21T20:36:24.666Z,16.45
2018-08-21T20:37:24.413Z,16.5
2018-08-21T20:38:24.406Z,16.45
2018-08-21T20:39:24.401Z,16.49
2018-08-21T20:40:24.650Z,16.46
2018-08-21T20:41:24.643Z,16.42
2018-08-21T20:42:24.136Z,16.34
2018-08-21T20:43:24.633Z,16.42
2018-08-21T20:44:24.376Z,16.33
2018-08-21T20:45:24.120Z,16.3
2018-08-21T20:46:24.619Z,16.34
2018-08-21T20:47:24.376Z,16.25
2018-08-21T20:48:24.357Z,16.21
2018-08-21T20:49:24.604Z,16.27
2018-08-21T20:50:24.349Z,16.25
2018-08-21T20:51:24.596Z,16.2
2018-08-21T20:52:24.341Z,16.11
2018-08-21T20:53:24.585Z,16.15
2018-08-21T20:54:24.580Z,16.15
2018-08-21T20:55:24.583Z,16.08
2018-08-21T20:56:24.569Z,16.07
2018-08-21T20:57:24.568Z,16
2018-08-21T20:58:24.559Z,16
2018-08-21T20:59:24.564Z,15.93
2018-08-21T21:00:24.553Z,16.05
2018-08-21T21:01:24.545Z,16.02
2018-08-21T21:02:24.546Z,15.92
2018-08-21T21:03:24.534Z,15.93
2018-08-21T21:04:24.429Z,15.94
2018-08-21T21:05:24.529Z,16
2018-08-21T21:06:24.519Z,15.92
2018-08-21T21:07:24.519Z,15.94
2018-08-21T21:08:24.509Z,15.89
2018-08-21T21:09:24.507Z,15.83
2018-08-21T21:10:24.647Z,15.76
2018-08-21T21:11:24.497Z,15.75
2018-08-21T21:12:24.505Z,15.76
2018-08-21T21:13:24.483Z,15.67
2018-08-21T21:14:24.484Z,15.6
2018-08-21T21:15:24.223Z,15.64
2018-08-21T21:16:24.376Z,15.67
2018-08-21T21:17:24.465Z,15.59
2018-08-21T21:18:24.209Z,15.47
2018-08-21T21:19:24.453Z,15.56
2018-08-21T21:20:24.196Z,15.54
2018-08-21T21:21:24.443Z,15.54
2018-08-21T21:22:24.439Z,15.51
2018-08-21T21:23:24.180Z,15.47
2018-08-21T21:24:24.427Z,15.41
2018-08-21T21:25:24.172Z,15.49
2018-08-21T21:26:24.174Z,15.47
2018-08-21T21:27:24.411Z,15.44
2018-08-21T21:28:24.405Z,15.36
2018-08-21T21:29:24.408Z,15.41
2018-08-21T21:30:24.395Z,15.47
2018-08-21T21:31:24.398Z,15.39
2018-08-21T21:32:24.388Z,15.46
2018-08-21T21:33:24.137Z,15.46
2018-08-21T21:34:24.375Z,15.44
2018-08-21T21:35:24.369Z,15.36
2018-08-21T21:36:24.388Z,15.43
2018-08-21T21:37:24.372Z,15.31
2018-08-21T21:38:24.102Z,15.32
2018-08-21T21:39:24.348Z,15.29
2018-08-21T21:40:24.343Z,15.31
2018-08-21T21:41:24.337Z,15.36
2018-08-21T21:42:24.338Z,15.32
2018-08-21T21:43:24.333Z,15.29
2018-08-21T21:44:24.071Z,15.38
2018-08-21T21:45:24.313Z,15.23
2018-08-21T21:46:24.667Z,15.27
2018-08-21T21:47:24.303Z,15.28
2018-08-21T21:50:24.285Z,15.25
2018-08-21T21:51:24.280Z,15.25
2018-08-21T21:52:24.282Z,15.19
2018-08-21T21:53:24.271Z,15.17
2018-08-21T21:54:24.264Z,15.16
2018-08-21T21:55:24.308Z,15.21
2018-08-21T21:56:24.000Z,15.13
2018-08-21T21:57:23.997Z,15.02
2018-08-21T21:58:23.988Z,15.13
2018-08-21T21:59:24.233Z,15.06
2018-08-21T22:00:24.231Z,15.03
2018-08-21T22:01:23.972Z,15.06
2018-08-21T22:02:23.964Z,15.1
2018-08-21T22:03:23.958Z,14.99
2018-08-21T22:04:23.961Z,15.01
2018-08-21T22:05:23.950Z,15.07
2018-08-21T22:06:23.944Z,14.95
2018-08-21T22:07:23.937Z,14.89
2018-08-21T22:08:24.185Z,14.96
2018-08-21T22:09:23.930Z,14.98
2018-08-21T22:10:23.920Z,14.99
2018-08-21T22:11:24.166Z,14.91
2018-08-21T22:12:24.159Z,14.8
2018-08-21T22:13:24.155Z,14.88
2018-08-21T22:14:23.903Z,14.89
2018-08-21T22:15:24.148Z,14.88
2018-08-21T22:16:24.136Z,14.89
2018-08-21T22:17:23.881Z,14.8
2018-08-21T22:18:24.124Z,14.91
2018-08-21T22:19:23.870Z,14.88
2018-08-21T22:20:24.118Z,14.84
2018-08-21T22:21:24.111Z,14.81
2018-08-21T22:22:24.115Z,14.88
2018-08-21T22:23:24.097Z,14.86
2018-08-21T22:24:24.089Z,14.81
2018-08-21T22:25:24.084Z,14.8
2018-08-21T22:26:24.085Z,14.84
2018-08-21T22:27:23.823Z,14.81
2018-08-21T22:28:24.071Z,14.83
2018-08-21T22:29:24.060Z,14.84
2018-08-21T22:30:24.057Z,14.81
2018-08-21T22:31:24.051Z,14.81
2018-08-21T22:32:24.047Z,14.73
2018-08-21T22:33:24.041Z,14.78
2018-08-21T22:34:24.037Z,14.68
2018-08-21T22:35:24.037Z,14.78
2018-08-21T22:36:24.024Z,14.72
2018-08-21T22:37:24.017Z,14.77
2018-08-21T22:38:24.013Z,14.86
2018-08-21T22:39:23.754Z,14.88
2018-08-21T22:40:23.749Z,14.83
2018-08-21T22:41:24.000Z,14.88
2018-08-21T22:42:23.989Z,14.83
2018-08-21T22:43:23.980Z,14.8
2018-08-21T22:44:23.979Z,14.86
2018-08-21T22:45:23.982Z,14.84
2018-08-21T22:46:23.966Z,14.81
2018-08-21T22:47:23.706Z,14.78
2018-08-21T22:48:23.952Z,14.75
2018-08-21T22:49:23.945Z,14.78
2018-08-21T22:50:23.440Z,14.7
2018-08-21T22:51:23.688Z,14.65
2018-08-21T22:52:23.678Z,14.75
2018-08-21T22:53:23.925Z,14.81
2018-08-21T22:54:23.915Z,14.77
2018-08-21T22:55:23.912Z,14.77
2018-08-21T22:56:23.908Z,14.84
2018-08-21T22:57:23.900Z,14.7
2018-08-21T22:58:23.891Z,14.77
2018-08-21T22:59:23.888Z,14.61
2018-08-21T23:00:23.632Z,14.69
2018-08-21T23:01:23.881Z,14.69
2018-08-21T23:02:23.871Z,14.7
2018-08-21T23:03:23.864Z,14.55
2018-08-21T23:04:23.607Z,14.64
2018-08-21T23:05:23.606Z,14.54
2018-08-21T23:06:23.853Z,14.61
2018-08-21T23:07:23.838Z,14.51
2018-08-21T23:08:23.833Z,14.52
2018-08-21T23:09:23.829Z,14.54
2018-08-21T23:10:23.820Z,14.6
2018-08-21T23:11:23.823Z,14.51
2018-08-21T23:12:23.809Z,14.4
2018-08-21T23:13:23.803Z,14.51
2018-08-21T23:14:23.803Z,14.43
2018-08-21T23:15:23.799Z,14.39
2018-08-21T23:16:23.790Z,14.36
2018-08-21T23:17:23.778Z,14.35
2018-08-21T23:18:23.772Z,14.35
2018-08-21T23:19:23.516Z,14.33
2018-08-21T23:20:23.508Z,14.25
2018-08-21T23:21:23.758Z,14.2
2018-08-21T23:22:23.748Z,14.27
2018-08-21T23:23:23.741Z,14.24
2018-08-21T23:24:23.738Z,14.36
2018-08-21T23:25:23.780Z,14.22
2018-08-21T23:26:23.725Z,14.25
2018-08-21T23:27:23.717Z,14.25
2018-08-21T23:28:23.462Z,14.28
2018-08-21T23:29:23.707Z,14.33
2018-08-21T23:30:23.703Z,14.29
2018-08-21T23:31:23.694Z,14.28
2018-08-21T23:32:23.690Z,14.42
2018-08-21T23:33:23.682Z,14.42
2018-08-21T23:34:23.776Z,14.51
2018-08-21T23:35:23.669Z,14.52
2018-08-21T23:36:23.665Z,14.57
2018-08-21T23:37:23.408Z,14.64
2018-08-21T23:38:23.397Z,14.64
2018-08-21T23:39:23.645Z,14.65
2018-08-21T23:40:23.645Z,14.62
2018-08-21T23:41:23.631Z,14.7
2018-08-21T23:42:23.629Z,14.75
2018-08-21T23:43:23.619Z,14.8
2018-08-21T23:44:23.615Z,14.73
2018-08-21T23:45:23.357Z,14.69
2018-08-21T23:46:23.598Z,14.73
2018-08-21T23:47:23.600Z,14.69
2018-08-21T23:48:23.593Z,14.8
2018-08-21T23:49:23.588Z,14.73
2018-08-21T23:50:23.327Z,14.69
2018-08-21T23:51:23.577Z,14.72
2018-08-21T23:52:23.564Z,14.73
2018-08-21T23:53:23.307Z,14.62
2018-08-21T23:54:23.552Z,14.69
2018-08-21T23:55:23.548Z,14.64
2018-08-21T23:56:23.541Z,14.7
2018-08-21T23:57:23.284Z,14.64
2018-08-21T23:58:23.277Z,14.61
2018-08-21T23:59:23.522Z,14.6
